Home > Products > Valid Products > TAF

000
FTUS41 KCLE 271100
TAFMFD
TAF
KMFD 271130Z 2712/2812 VRB03KT P6SM BKN030
      TEMPO 2712/2714 SCT030
     FM271400 27006KT P6SM SCT030
     FM272300 24003KT P6SM SKC=



000
FTUS41 KCLE 271100
TAFYNG
TAF
KYNG 271130Z 2712/2812 31003KT P6SM FEW040
     FM271500 26006KT P6SM SCT040
     FM272300 23003KT P6SM SKC=



000
FTUS41 KCLE 271100
TAFCAK
TAF
KCAK 271130Z 2712/2812 32004KT P6SM FEW040
     FM271500 27006KT P6SM SCT040
     FM272300 23003KT P6SM SKC=



000
FTUS41 KCLE 271000 AAA
TAFMFD
TAF AMD
KMFD 271038Z 2711/2806 32003KT P6SM BKN030
      TEMPO 2711/2714 SCT030
     FM271400 27006KT P6SM SCT030
     FM272300 24003KT P6SM SKC=



000
FTUS41 KCLE 270900 AAA
TAFERI
TAF AMD
KERI 270956Z 2710/2806 29003KT P6SM SCT025
      TEMPO 2710/2713 BKN025
     FM271500 26008KT P6SM SCT030
     FM272300 21005KT P6SM SKC=



000
FTUS41 KCLE 270800 AAA
TAFFDY
TAF AMD
KFDY 270854Z 2709/2806 30003KT P6SM SCT015
      TEMPO 2709/2711 BKN015
     FM271400 27006KT P6SM SKC=



000
FTUS41 KCLE 270500
TAFCLE
TAF
KCLE 270525Z 2706/2812 34005KT P6SM SCT030
     FM271400 27008KT P6SM FEW030
     FM272300 20003KT P6SM SKC=



000
FTUS41 KCLE 270500
TAFMFD
TAF
KMFD 270525Z 2706/2806 32003KT P6SM BKN030
      TEMPO 2706/2710 SCT030
     FM271000 32003KT P6SM SCT030
     FM271400 27006KT P6SM SCT030
     FM272300 24003KT P6SM SKC=



000
FTUS41 KCLE 270400 AAB
TAFYNG
TAF AMD
KYNG 270432Z 2705/2724 32006KT 4SM -SHSN BKN045 OVC100
     FM271000 31003KT P6SM SCT030
     FM271400 26006KT P6SM SCT030
     FM272300 23003KT P6SM SKC=



000
FTUS41 KCLE 270400 AAB
TAFYNG
TAF AMD
KYNG 270432Z 2705/2724 32006KT 4SM -SHSN BKN045 OVC100
     FM271000 31003KT P6SM SCT030
     FM271400 26006KT P6SM SCT030
     FM272300 23003KT P6SM SKC=



000
FTUS41 KCLE 270400 AAC
TAFMFD
TAF AMD
KMFD 270403Z 2704/2724 32003KT 3SM -SN OVC025
     FM270600 32003KT P6SM BKN030
      TEMPO 2706/2710 SCT030
     FM271000 32003KT P6SM SCT030
     FM271400 27006KT P6SM SCT030
     FM272300 24003KT P6SM SKC=



000
FTUS41 KCLE 270200 AAB
TAFCLE
TAF AMD
KCLE 270259Z 2703/2806 35006KT 5SM -SHSN SCT020 BKN045
     FM270500 35006KT P6SM SCT020 BKN100
     FM270700 33003KT P6SM FEW020
     FM271400 27008KT P6SM SKC=



000
FTUS41 KCLE 270200 AAA
TAFCAK
TAF AMD
KCAK 270214Z 2702/2724 35008KT 6SM -SHSN BKN018 OVC100
      TEMPO 2702/2705 2SM -SHSN
     FM270700 32004KT P6SM SCT025
     FM271400 27006KT P6SM SKC=



000
FTUS41 KCLE 270200 AAB
TAFMFD
TAF AMD
KMFD 270213Z 2702/2724 32004KT P6SM BKN022 OVC100
      TEMPO 2702/2704 2SM -SHSN
     FM270600 32003KT P6SM FEW018
     FM271400 27006KT P6SM SKC=



000
FTUS41 KCLE 270000 AAA
TAFERI
TAF AMD
KERI 270046Z 2701/2724 31005KT P6SM BKN025 BKN100
      TEMPO 2701/2703 2SM -SHSN OVC018
     FM270400 33005KT P6SM SCT025 BKN100
     FM270700 33003KT P6SM SCT025
     FM271500 27008KT P6SM SKC=



000
FTUS41 KCLE 270000 AAA
TAFYNG
TAF AMD
KYNG 270044Z 2701/2724 33010KT 6SM -SHSN BKN015 OVC100
     FM270600 32004KT P6SM SCT015 BKN100
     FM270800 32004KT P6SM SCT018
     FM271400 27006KT P6SM SKC=



000
FTUS41 KCLE 270000 AAA
TAFMFD
TAF AMD
KMFD 270043Z 2701/2724 35006KT P6SM BKN018 OVC100
      TEMPO 2701/2704 SCT018 OVC100
     FM270600 32003KT P6SM FEW018
     FM271400 27006KT P6SM SKC=



000
FTUS41 KCLE 270000 AAA
TAFCLE
TAF AMD
KCLE 270041Z 2701/2806 35006KT P6SM SCT020 BKN100
      TEMPO 2701/2704 3SM -SHSN BKN020
     FM270600 33003KT P6SM FEW020
     FM271400 27008KT P6SM SKC=



000
FTUS41 KCLE 262300
TAFFDY
TAF
KFDY 262336Z 2700/2724 36005KT P6SM SCT030 BKN100
      TEMPO 2700/2701 BKN030
     FM270500 33003KT P6SM SKC
     FM271400 27008KT P6SM SKC=



000
FTUS41 KCLE 262300
TAFYNG
TAF
KYNG 262336Z 2700/2724 33010KT 5SM -SHSN BKN025 OVC100
     FM270400 32004KT P6SM SCT025 BKN100
     FM270800 32004KT P6SM SCT025
     FM271400 27006KT P6SM SKC=



000
FTUS41 KCLE 262300
TAFTOL
TAF
KTOL 262336Z 2700/2724 33005KT P6SM SCT030 BKN100
     FM270500 33003KT P6SM SKC
     FM271400 27008KT P6SM SKC=



000
FTUS41 KCLE 262300
TAFMFD
TAF
KMFD 262336Z 2700/2724 35006KT P6SM BKN018 OVC100
     FM270600 32003KT P6SM FEW018
     FM271400 27006KT P6SM SKC=



000
FTUS41 KCLE 262300
TAFERI
TAF
KERI 262336Z 2700/2724 35005KT P6SM BKN025 BKN100
     FM270400 33005KT P6SM SCT025 BKN100
     FM270700 33003KT P6SM SCT025
     FM271500 27008KT P6SM SKC=



000
FTUS41 KCLE 262300
TAFCAK
TAF
KCAK 262336Z 2700/2724 35008KT P6SM BKN025 OVC100
      TEMPO 2700/2702 5SM -SHSN
     FM270700 32004KT P6SM SCT025
     FM271400 27006KT P6SM SKC=



000
FTUS41 KCLE 262300
TAFCLE
TAF
KCLE 262336Z 2700/2806 35006KT P6SM SCT020 BKN100
      TEMPO 2700/2701 6SM -SHSN
     FM270600 33003KT P6SM FEW020
     FM271400 27008KT P6SM SKC=



000
FTUS41 KCLE 262300 AAA
TAFFDY
TAF AMD
KFDY 262302Z 2623/2718 36005KT P6SM SCT030 BKN100
      TEMPO 2623/2701 BKN030
     FM270500 33003KT P6SM SKC
     FM271400 27008KT P6SM SKC=



000
FTUS41 KCLE 262200 AAA
TAFTOL
TAF AMD
KTOL 262257Z 2623/2718 33005KT P6SM SCT030 BKN100
     FM270500 33003KT P6SM SKC
     FM271400 27008KT P6SM SKC=



000
FTUS41 KCLE 262200 AAA
TAFTOL
TAF AMD
KTOL 262257Z 2623/2718 33005KT P6SM SCT030 BKN100
     FM270500 33003KT P6SM SKC
     FM271400 27008KT P6SM SKC=



000
FTUS41 KCLE 262200 AAA
TAFCLE
TAF AMD
KCLE 262226Z 2622/2724 36014KT 5SM -SHSN BLSN OVC025
      TEMPO 2622/2701 1 1/2SM -SHSN OVC018
     FM270200 35008KT P6SM BKN025 BKN070
     FM270700 32006KT P6SM SCT025
     FM271400 27008KT P6SM SKC=



000
FTUS41 KCLE 262200 AAA
TAFCLE
TAF AMD
KCLE 262226Z 2622/2724 36014KT 5SM -SHSN BLSN OVC025
      TEMPO 2622/2701 1 1/2SM -SHSN OVC018
     FM270200 35008KT P6SM BKN025 BKN070
     FM270700 32006KT P6SM SCT025
     FM271400 27008KT P6SM SKC=



000
FTUS41 KCLE 262100 AAA
TAFERI
TAF AMD
KERI 262108Z 2621/2718 36010KT P6SM BKN015 OVC025
      TEMPO 2621/2624 4SM -SHSN SCT015 OVC025
     FM270000 36008KT P6SM BKN025 BKN070
     FM270700 34006KT P6SM SCT025
     FM271400 27008KT P6SM SKC=



000
FTUS41 KCLE 262100 AAA
TAFYNG
TAF AMD
KYNG 262107Z 2621/2718 35010KT 5SM -SN OVC025
     FM262300 33006KT P6SM BKN025 BKN070
     FM270700 32004KT P6SM SCT025
     FM271400 27006KT P6SM SKC=



000
FTUS41 KCLE 262100 AAA
TAFCAK
TAF AMD
KCAK 262106Z 2621/2718 36010KT P6SM OVC025
      TEMPO 2621/2623 4SM -SHSN
     FM262300 34006KT P6SM BKN025 BKN070
     FM270700 32004KT P6SM SCT025
     FM271400 27006KT P6SM SKC=



000
FTUS41 KCLE 262100 AAA
TAFCLE
TAF AMD
KCLE 262105Z 2621/2724 36014G20KT 5SM -SN BLSN OVC025
     FM262300 35008KT P6SM BKN025 BKN070
     FM270700 32006KT P6SM SCT025
     FM271400 27008KT P6SM SKC=



000
FTUS41 KCLE 262100 AAA
TAFMFD
TAF AMD
KMFD 262104Z 2621/2718 36010KT 5SM HZ OVC025
     FM262200 34006KT P6SM BKN025 OVC070
     FM270600 32004KT P6SM SCT025
     FM271400 27006KT P6SM SKC=



000
FTUS41 KCLE 261700
TAFCAK
TAF
KCAK 261739Z 2618/2718 36010KT 1SM -SN OVC020
     FM262130 36010KT 5SM -SN OVC025
     FM262300 34006KT P6SM BKN025 BKN070
     FM270700 32004KT P6SM SCT025
     FM271400 27006KT P6SM SKC=



000
FTUS41 KCLE 261700
TAFYNG
TAF
KYNG 261739Z 2618/2718 35010KT 1SM -SN OVC020
     FM262230 35010KT 5SM -SN OVC025
     FM262300 33006KT P6SM BKN025 BKN070
     FM270700 32004KT P6SM SCT025
     FM271400 27006KT P6SM SKC=



000
FTUS41 KCLE 261700
TAFFDY
TAF
KFDY 261739Z 2618/2718 02010KT 3SM -SN OVC025
     FM261900 02010KT 6SM -SN OVC025
     FM262100 36008KT P6SM BKN035 OVC070
     FM270000 33005KT P6SM SCT070
     FM271400 27005KT P6SM SKC=



000
FTUS41 KCLE 261700
TAFMFD
TAF
KMFD 261739Z 2618/2718 36010KT 1 1/2SM -SN OVC018
     FM262030 36010KT 6SM -SN OVC025
     FM262200 34006KT P6SM BKN025 OVC070
     FM270600 32004KT P6SM SCT025
     FM271400 27006KT P6SM SKC=



000
FTUS41 KCLE 261700
TAFCAK
TAF
KCAK 261739Z 2618/2718 36010KT 1SM -SN OVC020
     FM262130 36010KT 5SM -SN OVC025
     FM262300 34006KT P6SM BKN025 BKN070
     FM270700 32004KT P6SM SCT025
     FM271400 27006KT P6SM SKC=



000
FTUS41 KCLE 261700
TAFCLE
TAF
KCLE 261739Z 2618/2724 02014KT 1 1/2SM -SN OVC015
     FM262000 02012KT 6SM -SN OVC025
     FM262200 35008KT P6SM BKN025 BKN070
     FM270700 32006KT P6SM SCT025
     FM271400 27008KT P6SM SKC=



000
FTUS41 KCLE 261700
TAFERI
TAF
KERI 261739Z 2618/2718 03014KT 1 1/2SM -SN OVC025
     FM262200 02012KT 6SM -SN OVC025
     FM270000 36008KT P6SM BKN025 BKN070
     FM270700 34006KT P6SM SCT025
     FM271400 27008KT P6SM SKC=



000
FTUS41 KCLE 261700
TAFFDY
TAF
KFDY 261739Z 2618/2718 02010KT 3SM -SN OVC025
     FM261900 02010KT 6SM -SN OVC025
     FM262100 36008KT P6SM BKN035 OVC070
     FM270000 33005KT P6SM SCT070
     FM271400 27005KT P6SM SKC=



000
FTUS41 KCLE 261700
TAFTOL
TAF
KTOL 261739Z 2618/2718 03008KT 2SM -SN OVC025
     FM261900 02010KT 6SM -SN OVC030
     FM262000 36008KT P6SM BKN040 OVC070
     FM270000 33005KT P6SM SCT070
     FM271400 27005KT P6SM SKC=



000
FTUS41 KCLE 261700
TAFERI
TAF
KERI 261739Z 2618/2718 03014KT 1 1/2SM -SN OVC025
     FM262200 02012KT 6SM -SN OVC025
     FM270000 36008KT P6SM BKN025 BKN070
     FM270700 34006KT P6SM SCT025
     FM271400 27008KT P6SM SKC=



000
FTUS41 KCLE 261700
TAFCLE
TAF
KCLE 261739Z 2618/2724 02014KT 1 1/2SM -SN OVC015
     FM262000 02012KT 6SM -SN OVC025
     FM262200 35008KT P6SM BKN025 BKN070
     FM270700 32006KT P6SM SCT025
     FM271400 27008KT P6SM SKC=



000
FTUS41 KCLE 261500 AAB
TAFFDY
TAF AMD
KFDY 261505Z 2615/2712 02014KT 1 1/2SM -SN OVC015
     FM261630 02012KT 3SM -SN OVC025
     FM261800 02010KT 6SM -SN OVC025
     FM262100 36008KT P6SM BKN035 OVC070=



000
FTUS41 KCLE 261500 AAB
TAFFDY
TAF AMD
KFDY 261505Z 2615/2712 02014KT 1 1/2SM -SN OVC015
     FM261630 02012KT 3SM -SN OVC025
     FM261800 02010KT 6SM -SN OVC025
     FM262100 36008KT P6SM BKN035 OVC070=



000
FTUS41 KCLE 261500 AAB
TAFERI
TAF AMD
KERI 261502Z 2615/2712 04010KT 2SM -SN OVC035
     FM261600 04008KT 1 1/2SM -SN OVC025
     FM262200 02008KT 4SM -SN BR OVC025
     FM270300 33006KT P6SM OVC025=



000
FTUS41 KCLE 261500 AAB
TAFERI
TAF AMD
KERI 261502Z 2615/2712 04010KT 2SM -SN OVC035
     FM261600 04008KT 1 1/2SM -SN OVC025
     FM262200 02008KT 4SM -SN BR OVC025
     FM270300 33006KT P6SM OVC025=



000
FTUS41 KCLE 261500 AAB
TAFYNG
TAF AMD
KYNG 261501Z 2615/2712 02008KT 3SM -SN OVC025
     FM261600 36008KT 1SM -SN BR OVC010
     FM262100 36008KT 3SM -SN BR OVC015
     FM270100 33005KT P6SM OVC025=



000
FTUS41 KCLE 261400 AAC
TAFTOL
TAF AMD
KTOL 261459Z 2615/2712 03010KT 1 1/2SM -SN OVC025
     FM261800 02010KT 6SM -SN OVC015
     FM262100 36008KT P6SM OVC035=



000
FTUS41 KCLE 261400 AAB
TAFCLE
TAF AMD
KCLE 261459Z 2615/2718 03012KT 1 1/2SM -SN OVC015
     FM261700 01010KT 3SM -SN OVC025
      TEMPO 2617/2619 1 1/2SM -SN OVC015
     FM262100 36010KT 6SM -SN OVC025
     FM270100 33005KT P6SM OVC035=



000
FTUS41 KCLE 261300 AAA
TAFERI
TAF AMD
KERI 261340Z 2614/2712 04010KT P6SM OVC050
     FM261430 04008KT 2SM -SN OVC025
     FM261630 04008KT 1 1/2SM -SN OVC010
     FM262200 02008KT 4SM -SN BR OVC015
     FM270300 33006KT P6SM OVC025=



000
FTUS41 KCLE 261300 AAA
TAFYNG
TAF AMD
KYNG 261340Z 2614/2712 01010KT 1 1/2SM -SN OVC020
     FM261700 36008KT 1SM -SN BR OVC010
     FM262200 36008KT 3SM -SN BR OVC015
     FM270100 33005KT P6SM OVC025=



000
FTUS41 KCLE 261300 AAA
TAFCAK
TAF AMD
KCAK 261339Z 2614/2712 02010KT 1 1/2SM -SN OVC020
     FM261600 02008KT 1SM -SN BR OVC008
     FM262100 36008KT 4SM -SN BR OVC015
     FM270000 33005KT P6SM OVC025=



000
FTUS41 KCLE 261300 AAA
TAFFDY
TAF AMD
KFDY 261338Z 2614/2712 03014KT 1 1/2SM -SN OVC025
     FM261500 02012KT 3SM -SN OVC025
     FM261800 02010KT 6SM -SN OVC025
     FM262000 36008KT P6SM OVC025=



000
FTUS41 KCLE 261300 AAB
TAFTOL
TAF AMD
KTOL 261336Z 2614/2712 05008KT 4SM -SN OVC035
     FM261600 05010KT 1 1/2SM -SN OVC025
     FM261800 02010KT 6SM -SN OVC015
     FM262100 36008KT P6SM OVC035=



000
FTUS41 KCLE 261200 AAA
TAFTOL
TAF AMD
KTOL 261236Z 2613/2712 06012KT 2SM -SN OVC035
     FM261400 05012KT 1 1/2SM -SN OVC025
     FM261800 02010KT 6SM -SN OVC015
     FM262100 36010KT P6SM OVC035=



000
FTUS41 KCLE 261200 CCA
TAFYNG
TAF COR
KYNG 261235Z 2612/2712 01008KT P6SM -SN OVC035
      TEMPO 2612/2615 2SM -SN OVC025
     FM261500 01010KT 2SM -SN OVC025
     FM261700 36008KT 1SM -SN BR OVC010
     FM262200 36008KT 3SM -SN BR OVC015
     FM270100 33005KT P6SM OVC025=



000
FTUS41 KCLE 261200 AAA
TAFCLE
TAF AMD
KCLE 261215Z 2612/2718 03012KT 3SM -SN OVC025
      TEMPO 2612/2614 1 1/2SM -SN OVC015
     FM261500 03010KT 1 1/2SM -SN OVC015
     FM262100 36010KT 3SM -SN OVC025
     FM270100 33005KT P6SM OVC035=



000
FTUS41 KCLE 261200 AAA
TAFCLE
TAF AMD
KCLE 261215Z 2612/2718 03012KT 3SM -SN OVC025
      TEMPO 2612/2614 1 1/2SM -SN OVC015
     FM261500 03010KT 1 1/2SM -SN OVC015
     FM262100 36010KT 3SM -SN OVC025
     FM270100 33005KT P6SM OVC035=



000
FTUS41 KCLE 261200 AAA
TAFMFD
TAF AMD
KMFD 261214Z 2612/2712 04010KT P6SM -SN OVC040
      TEMPO 2612/2614 1 1/2SM -SN OVC025
     FM261400 02010KT 1 1/2SM -SN OVC015
     FM261900 36010KT 3SM -SN OVC008
     FM262100 35008KT 6SM -SN BR OVC015
     FM270100 33004KT P6SM OVC025=



000
FTUS41 KCLE 261200 AAA
TAFMFD
TAF AMD
KMFD 261214Z 2612/2712 04010KT P6SM -SN OVC040
      TEMPO 2612/2614 1 1/2SM -SN OVC025
     FM261400 02010KT 1 1/2SM -SN OVC015
     FM261900 36010KT 3SM -SN OVC008
     FM262100 35008KT 6SM -SN BR OVC015
     FM270100 33004KT P6SM OVC025=



000
FTUS41 KCLE 261100
TAFFDY
TAF
KFDY 261134Z 2612/2712 05012KT 5SM -SN OVC035
     FM261400 03010KT 2SM -SN OVC025
     FM261800 02010KT 6SM -SN OVC015
     FM262000 36008KT P6SM OVC025=



000
FTUS41 KCLE 261100
TAFYNG
TAF
KYNG 261134Z 2612/2712 01008KT P6SM -SN OVC035
      TEMPO 2612/2615 3SM -SN OVC025
     FM261500 01010KT 2SM -SN OVC025
     FM261700 36008KT 1SM -SN BR OVC010
     FM262200 36008KT 3SM -SN BR OVC015
     FM270100 33005KT P6SM OVC025=



000
FTUS41 KCLE 261100
TAFTOL
TAF
KTOL 261134Z 2612/2712 06012KT 4SM -SN OVC035
     FM261400 05012KT 2SM -SN OVC025
     FM261800 02010KT 6SM -SN OVC015
     FM262100 36010KT P6SM OVC035=



000
FTUS41 KCLE 261100
TAFERI
TAF
KERI 261134Z 2612/2712 04010KT P6SM OVC050
     FM261500 04006KT 3SM -SN OVC025
     FM261630 04008KT 1 1/2SM -SN OVC010
     FM262200 02008KT 4SM -SN BR OVC015
     FM270300 33007KT P6SM OVC025=



000
FTUS41 KCLE 261100
TAFCLE
TAF
KCLE 261134Z 2612/2718 03012KT P6SM -SN OVC050
      TEMPO 2612/2614 3SM -SN
     FM261400 03010KT 3SM -SN OVC025
     FM261600 02010KT 1 1/2SM -SN OVC015
     FM262100 36010KT 4SM -SN OVC025
     FM270100 33005KT P6SM OVC035=



000
FTUS41 KCLE 261100
TAFCAK
TAF
KCAK 261134Z 2612/2712 03012KT 4SM -SN OVC035
      TEMPO 2612/2614 2SM -SN OVC025
     FM261400 03010KT 2SM -SN OVC025
     FM261600 02008KT 1SM -SN BR OVC008
     FM262100 36008KT 4SM -SN BR OVC015
     FM270000 33005KT P6SM OVC025=



000
FTUS41 KCLE 261100
TAFMFD
TAF
KMFD 261134Z 2612/2712 04010KT P6SM -SN OVC040
      TEMPO 2612/2614 3SM -SN
     FM261400 03010KT 3SM -SN OVC025
     FM261600 02010KT 1 1/2SM -SN OVC015
     FM261900 36010KT 3SM -SN OVC008
     FM262100 35008KT 6SM -SN BR OVC015
     FM270100 33004KT P6SM OVC025=



000
FTUS41 KCLE 261100
TAFTOL
TAF
KTOL 261134Z 2612/2712 06012KT 4SM -SN OVC035
     FM261400 05012KT 2SM -SN OVC025
     FM261800 02010KT 6SM -SN OVC015
     FM262100 36010KT P6SM OVC035=



000
FTUS41 KCLE 261100
TAFYNG
TAF
KYNG 261134Z 2612/2712 01008KT P6SM -SN OVC035
      TEMPO 2612/2615 3SM -SN OVC025
     FM261500 01010KT 2SM -SN OVC025
     FM261700 36008KT 1SM -SN BR OVC010
     FM262200 36008KT 3SM -SN BR OVC015
     FM270100 33005KT P6SM OVC025=



000
FTUS41 KCLE 261100
TAFFDY
TAF
KFDY 261134Z 2612/2712 05012KT 5SM -SN OVC035
     FM261400 03010KT 2SM -SN OVC025
     FM261800 02010KT 6SM -SN OVC015
     FM262000 36008KT P6SM OVC025=



000
FTUS41 KCLE 261100
TAFCAK
TAF
KCAK 261134Z 2612/2712 03012KT 4SM -SN OVC035
      TEMPO 2612/2614 2SM -SN OVC025
     FM261400 03010KT 2SM -SN OVC025
     FM261600 02008KT 1SM -SN BR OVC008
     FM262100 36008KT 4SM -SN BR OVC015
     FM270000 33005KT P6SM OVC025=



000
FTUS41 KCLE 261100
TAFCLE
TAF
KCLE 261134Z 2612/2718 03012KT P6SM -SN OVC050
      TEMPO 2612/2614 3SM -SN
     FM261400 03010KT 3SM -SN OVC025
     FM261600 02010KT 1 1/2SM -SN OVC015
     FM262100 36010KT 4SM -SN OVC025
     FM270100 33005KT P6SM OVC035=



000
FTUS41 KCLE 261100
TAFMFD
TAF
KMFD 261134Z 2612/2712 04010KT P6SM -SN OVC040
      TEMPO 2612/2614 3SM -SN
     FM261400 03010KT 3SM -SN OVC025
     FM261600 02010KT 1 1/2SM -SN OVC015
     FM261900 36010KT 3SM -SN OVC008
     FM262100 35008KT 6SM -SN BR OVC015
     FM270100 33004KT P6SM OVC025=



000
FTUS41 KCLE 261100
TAFERI
TAF
KERI 261134Z 2612/2712 04010KT P6SM OVC050
     FM261500 04006KT 3SM -SN OVC025
     FM261630 04008KT 1 1/2SM -SN OVC010
     FM262200 02008KT 4SM -SN BR OVC015
     FM270300 33007KT P6SM OVC025=



000
FTUS41 KCLE 261100 AAA
TAFCAK
TAF AMD
KCAK 261100Z 2611/2706 03012KT 4SM -SN OVC035
      TEMPO 2611/2614 1 1/2SM -SN OVC025
     FM261400 03010KT 3SM -SN OVC025
     FM261600 02008KT 1SM -SN BR OVC012
     FM262100 36008KT 4SM -SN BR OVC015
     FM270000 33005KT P6SM OVC025=



000
FTUS41 KCLE 261100 AAA
TAFCAK
TAF AMD
KCAK 261100Z 2611/2706 03012KT 4SM -SN OVC035
      TEMPO 2611/2614 1 1/2SM -SN OVC025
     FM261400 03010KT 3SM -SN OVC025
     FM261600 02008KT 1SM -SN BR OVC012
     FM262100 36008KT 4SM -SN BR OVC015
     FM270000 33005KT P6SM OVC025=



000
FTUS41 KCLE 261000 AAA
TAFFDY
TAF AMD
KFDY 261037Z 2611/2706 05010G18KT P6SM OVC070
     FM261200 03008KT 3SM -SN OVC025
     FM261400 03010KT 1 1/2SM -SN BR OVC010
     FM261800 01010KT 5SM -SN BR OVC015
     FM262300 36008KT P6SM OVC020=



000
FTUS41 KCLE 260800 AAA
TAFCLE
TAF AMD
KCLE 260854Z 2609/2712 05010KT P6SM OVC100
     FM261300 03010KT 4SM -SN OVC025
     FM261500 03012KT 1 1/2SM -SN BR OVC012
     FM262000 01012KT 4SM -SN BR OVC015
     FM270300 34008KT 6SM -SN OVC018
     FM270800 31006KT P6SM SCT020=



000
FTUS41 KCLE 260800 AAA
TAFCLE
TAF AMD
KCLE 260854Z 2609/2712 05010KT P6SM OVC100
     FM261300 03010KT 4SM -SN OVC025
     FM261500 03012KT 1 1/2SM -SN BR OVC012
     FM262000 01012KT 4SM -SN BR OVC015
     FM270300 34008KT 6SM -SN OVC018
     FM270800 31006KT P6SM SCT020=



000
FTUS41 KCLE 260500
TAFERI
TAF
KERI 260531Z 2606/2706 04005KT P6SM BKN150
     FM261500 04006KT 3SM -SN OVC025
     FM261600 04008KT 1 1/2SM -SN BR OVC015
     FM262200 02008KT 3SM -SN BR OVC015
     FM270300 33007KT P6SM OVC018=



000
FTUS41 KCLE 260500
TAFYNG
TAF
KYNG 260531Z 2606/2706 03006KT P6SM OVC100
     FM261500 05009KT 3SM -SN OVC025
     FM261700 03010KT 1 1/2SM -SN BR OVC015
     FM262200 35010KT 3SM -SN BR OVC015
     FM270300 31008KT P6SM OVC018=



000
FTUS41 KCLE 260500
TAFMFD
TAF
KMFD 260531Z 2606/2706 03008KT P6SM OVC070
     FM261300 03009KT 3SM -SN OVC025
     FM261500 02010KT 1 1/2SM -SN BR OVC010
     FM262000 36010KT 5SM -SN BR OVC015
     FM270100 35007KT P6SM OVC018=



000
FTUS41 KCLE 260500
TAFTOL
TAF
KTOL 260531Z 2606/2706 08008KT P6SM OVC070
     FM261100 03006KT 4SM -SN OVC025
     FM261300 03008KT 2SM -SN BR OVC012
     FM261800 02008KT 6SM -SN BR OVC015
     FM262300 36008KT P6SM BKN020 OVC080=



000
FTUS41 KCLE 260500
TAFFDY
TAF
KFDY 260531Z 2606/2706 05008KT P6SM OVC070
     FM261000 03008KT 3SM -SN OVC025
     FM261200 03010KT 1 1/2SM -SN BR OVC010
     FM261800 01010KT 5SM -SN BR OVC015
     FM262300 36008KT P6SM OVC020=



000
FTUS41 KCLE 260500
TAFCLE
TAF
KCLE 260531Z 2606/2712 05008KT P6SM OVC100
     FM261300 03010KT 4SM -SN OVC025
     FM261500 03012KT 1 1/2SM -SN BR OVC012
     FM262000 01012KT 4SM -SN BR OVC015
     FM270300 34008KT 6SM -SN OVC018
     FM270800 31006KT P6SM SCT020=



000
FTUS41 KCLE 260200 AAA
TAFERI
TAF AMD
KERI 260259Z 2603/2624 33005KT P6SM BKN150
     FM261500 04006KT 3SM -SN OVC025
     FM261600 04008KT 1 1/2SM -SN BR OVC015
     FM262200 02008KT 3SM -SN BR OVC015=



000
FTUS41 KCLE 260200 AAA
TAFFDY
TAF AMD
KFDY 260259Z 2603/2624 05006KT P6SM OVC080
     FM261100 03008KT 3SM -SN OVC025
     FM261300 03008KT 1SM -SN BR OVC010
     FM261800 01010KT 5SM -SN BR OVC015
     FM262300 36008KT P6SM OVC020=



000
FTUS41 KCLE 260200 AAA
TAFERI
TAF AMD
KERI 260259Z 2603/2624 33005KT P6SM BKN150
     FM261500 04006KT 3SM -SN OVC025
     FM261600 04008KT 1 1/2SM -SN BR OVC015
     FM262200 02008KT 3SM -SN BR OVC015=



000
FTUS41 KCLE 260200 AAA
TAFYNG
TAF AMD
KYNG 260258Z 2603/2624 03006KT P6SM BKN120
     FM261300 05006KT 3SM -SN OVC025
     FM261400 03008KT 1 1/2SM -SN BR OVC015
     FM262200 01008KT 3SM -SN BR OVC015=



000
FTUS41 KCLE 260200 AAA
TAFYNG
TAF AMD
KYNG 260258Z 2603/2624 03006KT P6SM BKN120
     FM261300 05006KT 3SM -SN OVC025
     FM261400 03008KT 1 1/2SM -SN BR OVC015
     FM262200 01008KT 3SM -SN BR OVC015=



000
FTUS41 KCLE 260200 AAA
TAFMFD
TAF AMD
KMFD 260257Z 2603/2624 03005KT P6SM OVC090
     FM261200 03006KT 3SM -SN OVC025
     FM261400 02008KT 1 1/2SM -SN BR OVC010
     FM262000 36009KT 5SM -SN BR OVC015=



000
FTUS41 KCLE 260200 AAA
TAFMFD
TAF AMD
KMFD 260257Z 2603/2624 03005KT P6SM OVC090
     FM261200 03006KT 3SM -SN OVC025
     FM261400 02008KT 1 1/2SM -SN BR OVC010
     FM262000 36009KT 5SM -SN BR OVC015=



000
FTUS41 KCLE 260200 AAA
TAFCAK
TAF AMD
KCAK 260255Z 2603/2624 04005KT P6SM BKN100
     FM261200 03006KT 3SM -SN OVC025
     FM261400 03008KT 1 1/2SM -SN BR OVC012
     FM262100 01008KT 3SM -SN BR OVC015=



000
FTUS41 KCLE 260200 AAA
TAFTOL
TAF AMD
KTOL 260255Z 2603/2624 06004KT P6SM OVC080
     FM261100 03006KT 3SM -SN OVC025
     FM261300 03008KT 2SM -SN BR OVC012
     FM261800 02008KT 6SM -SN BR OVC015
     FM262300 01008KT P6SM OVC020=



000
FTUS41 KCLE 260200 AAA
TAFTOL
TAF AMD
KTOL 260255Z 2603/2624 06004KT P6SM OVC080
     FM261100 03006KT 3SM -SN OVC025
     FM261300 03008KT 2SM -SN BR OVC012
     FM261800 02008KT 6SM -SN BR OVC015
     FM262300 01008KT P6SM OVC020=



000
FTUS41 KCLE 260200 AAA
TAFCAK
TAF AMD
KCAK 260255Z 2603/2624 04005KT P6SM BKN100
     FM261200 03006KT 3SM -SN OVC025
     FM261400 03008KT 1 1/2SM -SN BR OVC012
     FM262100 01008KT 3SM -SN BR OVC015=



000
FTUS41 KCLE 260200 AAA
TAFCLE
TAF AMD
KCLE 260253Z 2603/2706 03007KT P6SM BKN120
     FM261200 03006KT 4SM -SN OVC025
     FM261400 03008KT 1 1/2SM -SN BR OVC012
     FM262000 01008KT 4SM -SN BR OVC015
     FM270300 36008KT 6SM -SN OVC018=



000
FTUS41 KCLE 260200 AAA
TAFCLE
TAF AMD
KCLE 260253Z 2603/2706 03007KT P6SM BKN120
     FM261200 03006KT 4SM -SN OVC025
     FM261400 03008KT 1 1/2SM -SN BR OVC012
     FM262000 01008KT 4SM -SN BR OVC015
     FM270300 36008KT 6SM -SN OVC018=



000
FTUS41 KCLE 252300
TAFCAK
TAF
KCAK 252328Z 2600/2624 03005KT P6SM BKN140
     FM261000 03006KT 3SM -SN OVC025
     FM261200 03008KT 1 1/2SM -SN BR OVC012
     FM262100 01008KT 3SM -SN BR OVC015=



000
FTUS41 KCLE 252300
TAFCLE
TAF
KCLE 252328Z 2600/2706 03007KT P6SM BKN140
     FM261000 03006KT 3SM -SN OVC025
     FM261200 03008KT 1 1/2SM -SN BR OVC012
     FM262000 01008KT 4SM -SN BR OVC015
     FM270300 36008KT 6SM -SN OVC018=



000
FTUS41 KCLE 252300
TAFERI
TAF
KERI 252328Z 2600/2624 33005KT P6SM BKN150
     FM261300 04006KT 3SM -SN OVC025
     FM261500 04008KT 1 1/2SM -SN BR OVC015
     FM262200 02008KT 3SM -SN BR OVC015=



000
FTUS41 KCLE 252300
TAFTOL
TAF
KTOL 252328Z 2600/2624 06004KT P6SM OVC080
     FM260900 03006KT 3SM -SN OVC025
     FM261100 03008KT 1SM -SN BR OVC010
     FM261800 02008KT 5SM -SN BR OVC015
     FM262300 01008KT P6SM OVC020=



000
FTUS41 KCLE 252300
TAFCAK
TAF
KCAK 252328Z 2600/2624 03005KT P6SM BKN140
     FM261000 03006KT 3SM -SN OVC025
     FM261200 03008KT 1 1/2SM -SN BR OVC012
     FM262100 01008KT 3SM -SN BR OVC015=



000
FTUS41 KCLE 252300
TAFCLE
TAF
KCLE 252328Z 2600/2706 03007KT P6SM BKN140
     FM261000 03006KT 3SM -SN OVC025
     FM261200 03008KT 1 1/2SM -SN BR OVC012
     FM262000 01008KT 4SM -SN BR OVC015
     FM270300 36008KT 6SM -SN OVC018=



000
FTUS41 KCLE 252300
TAFYNG
TAF
KYNG 252328Z 2600/2624 02005KT P6SM BKN150
     FM261200 05006KT 3SM -SN OVC025
     FM261400 03008KT 1 1/2SM -SN BR OVC015
     FM262200 01008KT 3SM -SN BR OVC015=



000
FTUS41 KCLE 252300
TAFERI
TAF
KERI 252328Z 2600/2624 33005KT P6SM BKN150
     FM261300 04006KT 3SM -SN OVC025
     FM261500 04008KT 1 1/2SM -SN BR OVC015
     FM262200 02008KT 3SM -SN BR OVC015=



000
FTUS41 KCLE 252300
TAFFDY
TAF
KFDY 252328Z 2600/2624 05006KT P6SM OVC080
     FM260900 03008KT 3SM -SN OVC025
     FM261100 03008KT 1SM -SN BR OVC010
     FM261800 01010KT 5SM -SN BR OVC015
     FM262300 36008KT P6SM OVC020=



000
FTUS41 KCLE 252300
TAFMFD
TAF
KMFD 252328Z 2600/2624 03004KT P6SM BKN120
     FM261000 03006KT 3SM -SN OVC025
     FM261200 02008KT 1 1/2SM -SN BR OVC010
     FM262000 36009KT 5SM -SN BR OVC015=



000
FTUS41 KCLE 252300
TAFYNG
TAF
KYNG 252328Z 2600/2624 02005KT P6SM BKN150
     FM261200 05006KT 3SM -SN OVC025
     FM261400 03008KT 1 1/2SM -SN BR OVC015
     FM262200 01008KT 3SM -SN BR OVC015=



000
FTUS41 KCLE 252300
TAFTOL
TAF
KTOL 252328Z 2600/2624 06004KT P6SM OVC080
     FM260900 03006KT 3SM -SN OVC025
     FM261100 03008KT 1SM -SN BR OVC010
     FM261800 02008KT 5SM -SN BR OVC015
     FM262300 01008KT P6SM OVC020=



000
FTUS41 KCLE 252300
TAFFDY
TAF
KFDY 252328Z 2600/2624 05006KT P6SM OVC080
     FM260900 03008KT 3SM -SN OVC025
     FM261100 03008KT 1SM -SN BR OVC010
     FM261800 01010KT 5SM -SN BR OVC015
     FM262300 36008KT P6SM OVC020=



000
FTUS41 KCLE 252000 AAA
TAFCLE
TAF AMD
KCLE 252047Z 2521/2624 03006KT P6SM BKN200
     FM260000 03006KT P6SM OVC080
     FM261000 03006KT 3SM -SN OVC025
     FM261200 03008KT 1 1/2SM -SN BR OVC015
     FM261800 36008KT 5SM -SN BR OVC015=



000
FTUS41 KCLE 252000 AAA
TAFCLE
TAF AMD
KCLE 252047Z 2521/2624 03006KT P6SM BKN200
     FM260000 03006KT P6SM OVC080
     FM261000 03006KT 3SM -SN OVC025
     FM261200 03008KT 1 1/2SM -SN BR OVC015
     FM261800 36008KT 5SM -SN BR OVC015=



000
FTUS41 KCLE 251700
TAFMFD
TAF
KMFD 251739Z 2518/2618 34006KT P6SM BKN200
     FM252300 03004KT P6SM OVC080
     FM260800 03006KT P6SM BKN025 OVC080
     FM261000 03006KT 3SM -SN OVC025
     FM261200 01008KT 1 1/2SM -SN BR OVC012=



000
FTUS41 KCLE 251700
TAFFDY
TAF
KFDY 251739Z 2518/2618 VRB04KT P6SM BKN200
     FM252200 04006KT P6SM OVC080
     FM260700 04006KT P6SM BKN025 OVC080
     FM260900 02008KT 3SM -SN OVC025
     FM261100 03008KT 1SM -SN BR OVC012
     FM261600 01010KT 5SM -SN BR OVC015=



000
FTUS41 KCLE 251700
TAFTOL
TAF
KTOL 251739Z 2518/2618 VRB04KT P6SM BKN200
     FM252200 05004KT P6SM OVC080
     FM260900 03006KT 3SM -SN OVC025
     FM261100 03008KT 1SM -SN BR OVC010
     FM261600 01008KT 5SM -SN BR OVC015=



000
FTUS41 KCLE 251700
TAFCAK
TAF
KCAK 251739Z 2518/2618 35006KT P6SM BKN200
     FM260000 03004KT P6SM OVC080
     FM260800 03006KT P6SM BKN025 OVC080
     FM261000 03006KT 3SM -SN OVC025
     FM261200 01008KT 1 1/2SM -SN BR OVC012=



000
FTUS41 KCLE 251700
TAFERI
TAF
KERI 251739Z 2518/2618 31008KT P6SM SCT025
     FM252200 36005KT P6SM BKN200
     FM260300 06005KT P6SM OVC080
     FM261200 04006KT 3SM -SN OVC025
     FM261400 04008KT 1 1/2SM -SN BR OVC015=



000
FTUS41 KCLE 251700
TAFCLE
TAF
KCLE 251739Z 2518/2624 36005KT P6SM BKN200
     FM260000 03004KT P6SM OVC080
     FM261000 03006KT 3SM -SN OVC025
     FM261200 03008KT 1 1/2SM -SN BR OVC015
     FM261800 36008KT 5SM -SN BR OVC015=



000
FTUS41 KCLE 251700
TAFTOL
TAF
KTOL 251739Z 2518/2618 VRB04KT P6SM BKN200
     FM252200 05004KT P6SM OVC080
     FM260900 03006KT 3SM -SN OVC025
     FM261100 03008KT 1SM -SN BR OVC010
     FM261600 01008KT 5SM -SN BR OVC015=



000
FTUS41 KCLE 251700
TAFCLE
TAF
KCLE 251739Z 2518/2624 36005KT P6SM BKN200
     FM260000 03004KT P6SM OVC080
     FM261000 03006KT 3SM -SN OVC025
     FM261200 03008KT 1 1/2SM -SN BR OVC015
     FM261800 36008KT 5SM -SN BR OVC015=



000
FTUS41 KCLE 251700
TAFERI
TAF
KERI 251739Z 2518/2618 31008KT P6SM SCT025
     FM252200 36005KT P6SM BKN200
     FM260300 06005KT P6SM OVC080
     FM261200 04006KT 3SM -SN OVC025
     FM261400 04008KT 1 1/2SM -SN BR OVC015=



000
FTUS41 KCLE 251700
TAFMFD
TAF
KMFD 251739Z 2518/2618 34006KT P6SM BKN200
     FM252300 03004KT P6SM OVC080
     FM260800 03006KT P6SM BKN025 OVC080
     FM261000 03006KT 3SM -SN OVC025
     FM261200 01008KT 1 1/2SM -SN BR OVC012=



000
FTUS41 KCLE 251700
TAFFDY
TAF
KFDY 251739Z 2518/2618 VRB04KT P6SM BKN200
     FM252200 04006KT P6SM OVC080
     FM260700 04006KT P6SM BKN025 OVC080
     FM260900 02008KT 3SM -SN OVC025
     FM261100 03008KT 1SM -SN BR OVC012
     FM261600 01010KT 5SM -SN BR OVC015=



000
FTUS41 KCLE 251700
TAFYNG
TAF
KYNG 251739Z 2518/2618 34006KT P6SM BKN200
     FM260100 03004KT P6SM OVC080
     FM261200 05006KT 3SM -SN OVC025
     FM261300 03008KT 1 1/2SM -SN BR OVC015=



000
FTUS41 KCLE 251700
TAFYNG
TAF
KYNG 251739Z 2518/2618 34006KT P6SM BKN200
     FM260100 03004KT P6SM OVC080
     FM261200 05006KT 3SM -SN OVC025
     FM261300 03008KT 1 1/2SM -SN BR OVC015=



000
FTUS41 KCLE 251400 AAA
TAFCLE
TAF AMD
KCLE 251453Z 2515/2618 36006KT P6SM SCT035
     FM251900 36004KT P6SM BKN250
     FM260000 04006KT P6SM OVC100=



000
FTUS41 KCLE 251400 AAA
TAFERI
TAF AMD
KERI 251417Z 2514/2612 30008KT P6SM -SHSN OVC025
     FM251600 32008KT P6SM SCT035
     FM252200 36005KT P6SM BKN250
     FM260400 04005KT P6SM OVC100=



000
FTUS41 KCLE 251400 AAA
TAFYNG
TAF AMD
KYNG 251415Z 2514/2612 24012KT P6SM -SN OVC025
     FM251500 29008KT P6SM SCT035
      TEMPO 2515/2518 BKN035
     FM252000 34004KT P6SM BKN250
     FM260300 02006KT P6SM OVC100=



000
FTUS41 KCLE 251200 AAA
TAFCAK
TAF AMD
KCAK 251248Z 2513/2612 24008KT P6SM BKN025
      TEMPO 2514/2516 SCT025
     FM251600 32008KT P6SM SCT250
     FM252000 36004KT P6SM BKN250
     FM260200 03006KT P6SM OVC100=



000
FTUS41 KCLE 251200 AAA
TAFCAK
TAF AMD
KCAK 251248Z 2513/2612 24008KT P6SM BKN025
      TEMPO 2514/2516 SCT025
     FM251600 32008KT P6SM SCT250
     FM252000 36004KT P6SM BKN250
     FM260200 03006KT P6SM OVC100=



000
FTUS41 KCLE 251200 AAA
TAFMFD
TAF AMD
KMFD 251247Z 2513/2612 27008KT P6SM SCT015
      TEMPO 2513/2515 BKN015
     FM251500 33008KT P6SM SCT250
     FM251900 36004KT P6SM BKN250
     FM260000 04006KT P6SM OVC100=



000
FTUS41 KCLE 251200 CCA
TAFYNG
TAF COR
KYNG 251216Z 2512/2612 24014KT P6SM -SN OVC035
      TEMPO 2512/2515 2SM -SHSN BKN025
     FM251500 29008KT P6SM SCT035
      TEMPO 2515/2518 BKN035
     FM252000 34004KT P6SM BKN250
     FM260300 02006KT P6SM OVC100=



000
FTUS41 KCLE 251200 CCA
TAFYNG
TAF COR
KYNG 251216Z 2512/2612 24014KT P6SM -SN OVC035
      TEMPO 2512/2515 2SM -SHSN BKN025
     FM251500 29008KT P6SM SCT035
      TEMPO 2515/2518 BKN035
     FM252000 34004KT P6SM BKN250
     FM260300 02006KT P6SM OVC100=



000
FTUS41 KCLE 251100
TAFCLE
TAF
KCLE 251133Z 2512/2618 34010KT P6SM BKN025
      TEMPO 2512/2513 6SM -SHSN BKN015
     FM251400 35008KT P6SM SCT035
      TEMPO 2514/2516 BKN035
     FM251900 36004KT P6SM BKN250
     FM260000 04006KT P6SM OVC100=



000
FTUS41 KCLE 251100
TAFMFD
TAF
KMFD 251133Z 2512/2612 27008KT P6SM SCT035
      TEMPO 2512/2514 BKN035
     FM251400 33008KT P6SM SCT250
     FM251900 36004KT P6SM BKN250
     FM260000 04006KT P6SM OVC100=



000
FTUS41 KCLE 251100
TAFCAK
TAF
KCAK 251133Z 2512/2612 24008KT P6SM SCT040
      TEMPO 2512/2515 BKN040
     FM251500 32008KT P6SM SCT250
     FM252000 36004KT P6SM BKN250
     FM260200 03006KT P6SM OVC100=



000
FTUS41 KCLE 251100
TAFTOL
TAF
KTOL 251133Z 2512/2612 34008KT P6SM SCT040
      TEMPO 2512/2516 BKN040
     FM251800 36005KT P6SM BKN250
     FM252100 02005KT P6SM OVC100
     FM260900 03008KT 5SM -SHSN OVC025=



000
FTUS41 KCLE 251100
TAFERI
TAF
KERI 251133Z 2512/2612 31010G18KT P6SM -SHSN OVC035
      TEMPO 2512/2515 3SM -SHSN OVC015
     FM251500 32008KT P6SM BKN050
     FM252200 36005KT P6SM BKN250
     FM260400 04005KT P6SM OVC100=



000
FTUS41 KCLE 251100
TAFFDY
TAF
KFDY 251133Z 2512/2612 32008KT P6SM FEW040
     FM251800 01005KT P6SM BKN250
     FM252100 04005KT P6SM OVC100
     FM260900 04008KT 5SM -SHSN OVC025=



000
FTUS41 KCLE 251000 AAA
TAFCAK
TAF AMD
KCAK 251017Z 2510/2606 24010KT P6SM SCT035
      TEMPO 2510/2514 BKN035
     FM251500 32008KT P6SM BKN250
     FM260500 03006KT P6SM BKN110=



000
FTUS41 KCLE 250800 AAA
TAFMFD
TAF AMD
KMFD 250855Z 2509/2606 24010KT P6SM SCT035
      TEMPO 2509/2513 BKN035
     FM251500 33005KT P6SM BKN250
     FM260400 04006KT P6SM OVC090=



000
FTUS41 KCLE 250800 AAA
TAFTOL
TAF AMD
KTOL 250854Z 2509/2606 25010KT P6SM SCT040
      TEMPO 2509/2512 BKN040
     FM251400 34005KT P6SM BKN250
     FM260300 05006KT P6SM OVC080=



000
FTUS41 KCLE 250800 AAA
TAFCLE
TAF AMD
KCLE 250853Z 2509/2612 23010KT P6SM BKN035
      TEMPO 2509/2512 SCT035
     FM251300 32008KT P6SM BKN250
     FM260400 04006KT P6SM BKN100=



000
FTUS41 KCLE 250800 AAA
TAFFDY
TAF AMD
KFDY 250853Z 2509/2606 25010KT P6SM FEW040
     FM251500 34005KT P6SM BKN250
     FM260300 05008KT P6SM OVC080=



000
FTUS41 KCLE 250500
TAFFDY
TAF
KFDY 250522Z 2506/2606 25010KT P6SM BKN035
      TEMPO 2506/2509 3SM -SHSN OVC025
     FM251100 30009KT P6SM BKN030
     FM251500 34005KT P6SM BKN250
     FM260300 05008KT P6SM OVC080=



000
FTUS41 KCLE 250500
TAFYNG
TAF
KYNG 250522Z 2506/2606 24014KT P6SM -SN OVC035
      TEMPO 2506/2510 3SM -SHSN OVC025
     FM251000 26010KT 6SM -SN OVC025
     FM251700 31007KT P6SM SCT025 BKN250
     FM260500 02006KT P6SM BKN120=



000
FTUS41 KCLE 250500
TAFCAK
TAF
KCAK 250522Z 2506/2606 24012G20KT P6SM -SN OVC035
      TEMPO 2506/2510 3SM -SHSN OVC025
     FM251000 26010KT 6SM -SN BKN025 OVC040
     FM251600 32007KT P6SM BKN250
     FM260500 03006KT P6SM BKN110=



000
FTUS41 KCLE 250500
TAFMFD
TAF
KMFD 250522Z 2506/2606 24012G20KT P6SM VCSH OVC040
      TEMPO 2506/2510 3SM -SHSN BKN025
     FM251100 28009KT P6SM BKN025
     FM251600 33005KT P6SM BKN250
     FM260400 04006KT P6SM OVC090=



000
FTUS41 KCLE 250500
TAFCLE
TAF
KCLE 250522Z 2506/2612 24014KT P6SM -SN OVC035
      TEMPO 2506/2510 2SM -SHSN SCT010 OVC025
     FM251000 27010KT 6SM -SN BKN025 OVC035
     FM251500 32008KT P6SM BKN250
     FM260400 04006KT P6SM BKN100=



000
FTUS41 KCLE 250500
TAFTOL
TAF
KTOL 250522Z 2506/2606 25010KT P6SM BKN040
      TEMPO 2506/2508 3SM -SHSN OVC025
     FM251000 30008KT P6SM BKN035
     FM251400 34005KT P6SM BKN250
     FM260300 05006KT P6SM OVC080=



000
FTUS41 KCLE 250500
TAFERI
TAF
KERI 250522Z 2506/2606 23010G18KT 3SM -SHSN OVC025
      TEMPO 2506/2510 1SM -SHSN OVC015
     FM251000 26012G18KT 6SM -SHSN OVC035
     FM251800 29008KT P6SM SCT030 BKN250
     FM260500 03005KT P6SM BKN140=



000
FTUS41 KCLE 250300 AAA
TAFMFD
TAF AMD
KMFD 250313Z 2503/2524 24012G18KT P6SM VCSH BKN025 OVC040
      TEMPO 2504/2508 3SM -SHSN BKN018 OVC030
     FM250900 27009KT P6SM BKN025
     FM251400 30005KT P6SM BKN250=



000
FTUS41 KCLE 250300 AAA
TAFERI
TAF AMD
KERI 250311Z 2503/2524 23012G18KT 5SM -SN BKN025 OVC040
      TEMPO 2505/2509 2SM -SHSN BKN015 OVC030
     FM250900 24012G18KT 6SM -SHSN BKN022 OVC035
     FM251200 28010KT P6SM VCSH BKN025
     FM251800 28008KT P6SM SCT030 BKN250=



000
FTUS41 KCLE 250300 AAA
TAFYNG
TAF AMD
KYNG 250308Z 2503/2524 24014G20KT P6SM OVC040
      TEMPO 2505/2509 3SM -SHSN OVC025
     FM250900 24010KT 6SM -SN BKN025 OVC040
     FM251200 29008KT P6SM VCSH BKN025
     FM251600 30007KT P6SM SCT025 BKN250=



000
FTUS41 KCLE 250300 AAA
TAFFDY
TAF AMD
KFDY 250306Z 2503/2524 24012G18KT P6SM BKN025 OVC040
      TEMPO 2504/2508 3SM -SHSN SCT015 OVC035
     FM251000 30009KT P6SM BKN030
     FM251400 32005KT P6SM BKN250
     FM252300 05005KT P6SM BKN100 OVC200=



000
FTUS41 KCLE 250300 AAA
TAFTOL
TAF AMD
KTOL 250304Z 2503/2524 24012G18KT P6SM BKN025 OVC040
      TEMPO 2503/2507 3SM -SHSN SCT015 OVC035
     FM251000 31008KT P6SM BKN035
     FM251400 32005KT P6SM BKN250
     FM252300 04004KT P6SM BKN100 OVC200=



000
FTUS41 KCLE 250300 AAA
TAFCLE
TAF AMD
KCLE 250302Z 2503/2606 24014G20KT P6SM -SN OVC035
      TEMPO 2505/2509 2SM -SHSN SCT010 OVC020
     FM250900 27012KT 6SM -SN BKN020 OVC035
     FM251500 30007KT P6SM BKN250
     FM260300 05004KT P6SM BKN110=



000
FTUS41 KCLE 242300
TAFERI
TAF
KERI 242330Z 2500/2524 21015G22KT P6SM -SN SCT025 OVC050
      TEMPO 2504/2508 2SM -SHSN SCT010 OVC020
     FM250800 24014G20KT 6SM -SHSN BKN025 OVC040
     FM251200 28010KT P6SM VCSH BKN025
     FM251800 28008KT P6SM SCT030 BKN250=



000
FTUS41 KCLE 242300
TAFFDY
TAF
KFDY 242330Z 2500/2524 23014G20KT P6SM SCT030 OVC050
      TEMPO 2501/2505 3SM -SHSN BKN025 OVC040
     FM250500 24014G20KT P6SM -SHSN BKN035
     FM251000 30009KT P6SM BKN035
     FM251400 32005KT P6SM BKN250
     FM252300 05005KT P6SM BKN100 OVC200=



000
FTUS41 KCLE 242300
TAFYNG
TAF
KYNG 242330Z 2500/2524 22014G20KT P6SM SCT035 OVC070
      TEMPO 2504/2508 3SM -SHSN OVC025
     FM250800 24011KT 6SM -SN BKN025 OVC040
     FM251200 29008KT P6SM VCSH BKN025
     FM251600 30007KT P6SM SCT025 BKN250=



000
FTUS41 KCLE 242300
TAFCAK
TAF
KCAK 242330Z 2500/2524 22014G20KT P6SM SCT035 OVC070
      TEMPO 2504/2508 3SM -SHSN OVC025
     FM250800 24011KT 6SM -SN BKN025 OVC040
     FM251200 29008KT P6SM BKN025
     FM251500 30007KT P6SM BKN250=



000
FTUS41 KCLE 242300
TAFMFD
TAF
KMFD 242330Z 2500/2524 22012G22KT P6SM VCSH SCT030 OVC050
      TEMPO 2503/2507 3SM -SHSN OVC025
     FM250900 28008KT P6SM BKN025
     FM251400 29005KT P6SM BKN250=



000
FTUS41 KCLE 242300
TAFTOL
TAF
KTOL 242330Z 2500/2524 23014G22KT P6SM SCT030 OVC060
      TEMPO 2500/2504 3SM -SHSN BKN025 OVC040
     FM250400 25014G20KT P6SM -SHSN BKN025 OVC050
     FM251000 31008KT P6SM BKN035
     FM251400 32005KT P6SM BKN250
     FM252300 04004KT P6SM BKN100 OVC200=



000
FTUS41 KCLE 242300
TAFCLE
TAF
KCLE 242330Z 2500/2606 22014G20KT P6SM -SN SCT025 OVC050
      TEMPO 2503/2507 2SM -SHSN SCT010 OVC020
     FM250700 24014KT 6SM -SN BKN020 OVC035
     FM251100 29008KT P6SM BKN025
     FM251500 30007KT P6SM BKN250
     FM260300 05004KT P6SM BKN110=



000
FTUS41 KCLE 242100 AAA
TAFMFD
TAF AMD
KMFD 242117Z 2421/2518 21016G24KT P6SM BKN100
     FM250000 22012G22KT 6SM -SN SCT030 OVC050
      TEMPO 2500/2504 3SM -SHSN OVC025
     FM251000 28008KT P6SM BKN025
     FM251400 29005KT P6SM BKN250=



000
FTUS41 KCLE 242100 AAA
TAFFDY
TAF AMD
KFDY 242114Z 2421/2518 22018G26KT P6SM SCT030 OVC060
      TEMPO 2423/2503 3SM -SHSN BKN025 OVC040
     FM250300 24014G22KT P6SM -SHSN BKN025 OVC050
     FM251000 30009KT P6SM BKN035
     FM251400 32005KT P6SM BKN250=



000
FTUS41 KCLE 242100 AAA
TAFTOL
TAF AMD
KTOL 242111Z 2421/2518 23018G26KT P6SM SCT030 OVC060
      TEMPO 2422/2502 3SM -SHSN BKN025 OVC040
     FM250200 24014G20KT P6SM -SHSN BKN025 OVC050
     FM251000 31008KT P6SM BKN035
     FM251400 32005KT P6SM BKN250=



000
FTUS41 KCLE 242000 AAA
TAFCLE
TAF AMD
KCLE 242040Z 2421/2524 21017G25KT P6SM OVC200
     FM250000 24015G22KT 4SM -SN SCT020 BKN035
     FM250600 23010KT 2SM -SN BR BKN010 OVC020
     FM251100 30008KT P6SM OVC025
     FM251300 29007KT P6SM BKN250
     FM252000 VRB03KT P6SM BKN100=



000
FTUS41 KCLE 241700
TAFERI
TAF
KERI 241725Z 2418/2518 21018G25KT P6SM OVC200
     FM250000 22015G22KT 5SM -SN SCT025 OVC035
     FM250500 26015G22KT 2SM -SN SCT008 OVC018
     FM251300 28008KT P6SM OVC025
     FM251600 28008KT P6SM OVC050=



000
FTUS41 KCLE 241700
TAFCAK
TAF
KCAK 241725Z 2418/2518 21014G22KT P6SM OVC200
     FM250000 22012G20KT P6SM BKN050
     FM250200 23010KT 6SM -SN BKN030
     FM250800 25008KT 4SM -SN BKN015
     FM251200 30008KT P6SM OVC025
     FM251400 30007KT P6SM BKN250=



000
FTUS41 KCLE 241700
TAFFDY
TAF
KFDY 241725Z 2418/2518 22018G25KT P6SM OVC180
     FM242300 25012G20KT 6SM -SHSN BKN025 OVC050
     FM250800 29010KT 4SM -SHSN OVC015
     FM251000 32005KT P6SM OVC050
     FM251200 32005KT P6SM BKN250=



000
FTUS41 KCLE 241700
TAFTOL
TAF
KTOL 241725Z 2418/2518 22018G25KT P6SM OVC180
     FM242300 25012G20KT 5SM -SHSN BKN025 OVC050
     FM250800 28010KT 3SM -SHSN OVC015
     FM251000 31007KT P6SM OVC050
     FM251200 VRB03KT P6SM BKN250=



000
FTUS41 KCLE 241700
TAFMFD
TAF
KMFD 241725Z 2418/2518 21015G25KT P6SM OVC140
     FM250000 24012G22KT 6SM -SN BKN030
     FM250900 25008KT 4SM -SHSN BKN012 OVC020
     FM251100 29005KT P6SM BKN250=



000
FTUS41 KCLE 241400 AAA
TAFCLE
TAF AMD
KCLE 241452Z 2415/2518 19010KT P6SM BKN180
     FM241700 21017G25KT P6SM BKN150
     FM250000 24015G22KT 4SM -SN SCT020 BKN035
     FM250600 23010KT 2SM -SN BR BKN010 OVC020
     FM251100 30008KT 5SM -SHSN BKN015 OVC025=



000
FTUS41 KCLE 241100
TAFMFD
TAF
KMFD 241139Z 2412/2512 20007KT P6SM SCT200
     FM241500 21015G25KT P6SM SCT040 OVC120
     FM250000 24012G22KT 6SM -SN BKN030
     FM250900 25008KT 4SM -SHSN BKN012 OVC020=



    US Dept of Commerce
    National Oceanic and Atmospheric Administration
    National Weather Service
    1325 East West Highway
    Silver Spring, MD 20910
    Page Author: NWS Internet Services Team
Disclaimer
Information Quality
Credits
Glossary
Privacy Policy
Freedom of Information Act (FOIA)
About Us
Career Opportunities